Time;durP1;ratioP1;P1;durP2;ratioP2;P2;SDS_P1;SDS_P2;PMS_P1;PMS_P2;Temp;Humidity;BMP_temperature;BMP_pressure;BME280_temperature;BME280_humidity;BME280_pressure;Samples;Min_cycle;Max_cycle;Signal;HPM_P1;HPM_P2
2022/05/26 00:01:50;;;;;;;0.70;0.60;;;;;;;16.77;83.35;100715.84;5026345;28;20192;-76
2022/05/26 00:04:16;;;;;;;1.40;0.70;;;;;;;16.80;83.23;100724.50;5022310;28;20197;-76
2022/05/26 00:06:41;;;;;;;1.27;1.10;;;;;;;16.77;83.07;100720.22;5022710;28;20675;-76
2022/05/26 00:09:07;;;;;;;1.97;0.80;;;;;;;16.75;83.20;100720.25;5015492;28;20207;-77
2022/05/26 00:11:35;;;;;;;1.37;0.67;;;;;;;16.74;83.33;100722.91;5027539;28;20183;-77
2022/05/26 00:14:09;;;;;;;0.90;0.70;;;;;;;16.73;83.50;100726.41;5021013;28;20187;-76
2022/05/26 00:16:43;;;;;;;0.90;0.60;;;;;;;16.72;83.55;100725.53;5026730;28;20209;-76
2022/05/26 00:19:10;;;;;;;0.90;0.60;;;;;;;16.69;83.69;100723.03;5030555;28;20229;-76
2022/05/26 00:21:35;;;;;;;0.93;0.60;;;;;;;16.69;84.13;100724.78;5024742;28;20200;-76
2022/05/26 00:24:01;;;;;;;0.93;0.80;;;;;;;16.67;84.21;100719.59;5031854;28;20191;-77
2022/05/26 00:26:27;;;;;;;0.90;0.70;;;;;;;16.66;84.16;100719.63;5028362;28;20244;-76
2022/05/26 00:28:52;;;;;;;1.10;0.60;;;;;;;16.64;84.42;100724.91;5026864;28;20302;-75
2022/05/26 00:31:18;;;;;;;0.70;0.70;;;;;;;16.63;84.16;100728.41;5033286;28;20652;-76
2022/05/26 00:33:44;;;;;;;0.80;0.63;;;;;;;16.63;84.16;100725.81;5030305;28;20187;-76
2022/05/26 00:36:12;;;;;;;1.33;0.60;;;;;;;16.63;84.03;100728.41;5028063;28;20183;-76
2022/05/26 00:38:41;;;;;;;1.23;0.50;;;;;;;16.62;83.78;100731.94;5028905;28;20330;-76
2022/05/26 00:41:12;;;;;;;1.60;0.70;;;;;;;16.65;83.57;100733.59;5024163;28;20291;-77
2022/05/26 00:43:43;;;;;;;1.37;0.60;;;;;;;16.66;83.27;100743.16;5028611;28;20190;-76
2022/05/26 00:46:32;;;;;;;2.27;0.60;;;;;;;16.65;83.22;100730.97;5025746;28;20561;-76
2022/05/26 00:48:59;;;;;;;1.17;0.80;;;;;;;16.66;82.91;100741.41;5028376;28;20250;-76
2022/05/26 00:51:31;;;;;;;1.97;0.80;;;;;;;16.65;83.01;100736.22;5020929;28;20663;-76
2022/05/26 00:54:02;;;;;;;1.53;0.70;;;;;;;16.64;83.18;100744.97;5027443;28;20187;-76
2022/05/26 00:56:32;;;;;;;0.70;0.53;;;;;;;16.64;83.05;100739.75;5026210;28;20815;-75
2022/05/26 00:59:06;;;;;;;0.97;0.60;;;;;;;16.63;83.45;100735.41;5026856;28;20212;-76
2022/05/26 01:01:31;;;;;;;0.70;0.50;;;;;;;16.63;83.27;100735.41;5025676;28;20207;-77
2022/05/26 01:04:00;;;;;;;1.23;0.60;;;;;;;16.63;83.33;100738.03;5029421;28;20618;-74
2022/05/26 01:06:31;;;;;;;1.17;0.67;;;;;;;16.63;82.88;100746.72;5026054;28;20204;-75
2022/05/26 01:08:58;;;;;;;1.70;0.67;;;;;;;16.62;82.84;100747.59;5024100;28;20208;-75
2022/05/26 01:11:25;;;;;;;1.07;0.70;;;;;;;16.60;82.90;100747.66;5026834;28;20697;-76
2022/05/26 01:14:10;;;;;;;1.33;0.70;;;;;;;16.61;82.87;100748.50;5029606;28;20183;-76
2022/05/26 01:16:42;;;;;;;1.20;0.77;;;;;;;16.62;82.85;100742.38;5027041;28;20198;-76
2022/05/26 01:19:39;;;;;;;1.73;0.70;;;;;;;16.62;83.00;100739.78;5024725;28;20267;-76
2022/05/26 01:22:23;;;;;;;1.37;0.80;;;;;;;16.61;82.61;100738.06;5026008;28;20279;-76
2022/05/26 01:25:24;;;;;;;1.63;0.90;;;;;;;16.65;82.38;100723.13;5029860;28;20240;-76
2022/05/26 01:28:06;;;;;;;2.27;0.70;;;;;;;16.67;81.94;100730.06;5020806;28;20220;-76
2022/05/26 01:31:09;;;;;;;1.77;0.70;;;;;;;16.66;82.12;100730.97;5023923;28;20234;-76
2022/05/26 01:33:54;;;;;;;0.93;0.83;;;;;;;16.64;82.45;100727.53;5024004;28;20630;-76
2022/05/26 01:36:42;;;;;;;1.77;0.70;;;;;;;16.66;82.40;100733.56;5060537;28;20298;-75
2022/05/26 01:39:32;;;;;;;1.90;0.80;;;;;;;16.66;82.39;100732.69;5020299;28;20217;-76
2022/05/26 01:42:29;;;;;;;1.57;0.70;;;;;;;16.64;82.86;100737.97;5028274;28;20250;-75
2022/05/26 01:45:07;;;;;;;1.63;0.63;;;;;;;16.65;82.98;100729.25;5028267;28;20192;-76
2022/05/26 01:47:57;;;;;;;1.53;0.80;;;;;;;16.65;82.81;100738.81;5060158;28;20452;-75
2022/05/26 01:50:51;;;;;;;1.00;0.73;;;;;;;16.65;82.58;100734.47;5036011;28;20193;-75
2022/05/26 01:53:31;;;;;;;0.87;0.80;;;;;;;16.63;82.95;100745.88;5033305;28;20226;-75
2022/05/26 01:56:09;;;;;;;0.70;0.60;;;;;;;16.60;83.09;100731.97;5027452;28;20674;-76
2022/05/26 01:58:46;;;;;;;1.40;0.50;;;;;;;16.58;83.25;100732.91;5032394;28;20221;-77
2022/05/26 02:01:21;;;;;;;1.17;0.60;;;;;;;16.59;83.32;100734.63;5028961;28;20260;-76
2022/05/26 02:03:49;;;;;;;2.00;0.80;;;;;;;16.56;83.56;100735.56;5032082;28;20193;-77
2022/05/26 02:06:24;;;;;;;1.60;0.80;;;;;;;16.55;83.75;100741.69;5029374;28;20568;-78
2022/05/26 02:09:00;;;;;;;1.33;0.80;;;;;;;16.53;84.01;100742.63;5026348;28;20731;-75
2022/05/26 02:11:26;;;;;;;0.93;0.77;;;;;;;16.50;84.39;100742.72;5025860;28;20663;-77
2022/05/26 02:13:57;;;;;;;0.70;0.70;;;;;;;16.46;84.26;100748.00;5028137;28;20221;-77
2022/05/26 02:16:35;;;;;;;0.70;0.57;;;;;;;16.43;84.80;100749.84;5025177;28;20296;-76
2022/05/26 02:19:21;;;;;;;0.77;0.70;;;;;;;16.41;85.08;100749.88;5031010;28;20642;-76
2022/05/26 02:21:51;;;;;;;1.50;0.90;;;;;;;16.39;85.20;100750.81;5026831;28;20213;-76
2022/05/26 02:24:34;;;;;;;1.27;0.67;;;;;;;16.36;85.06;100749.16;5021770;28;20492;-77
2022/05/26 02:27:00;;;;;;;1.27;1.00;;;;;;;16.32;85.28;100755.34;5025864;28;20274;-75
2022/05/26 02:32:11;;;;;;;2.13;0.90;;;;;;;16.25;85.76;100756.41;5029547;28;20198;-76
2022/05/26 02:34:40;;;;;;;0.93;0.60;;;;;;;16.20;86.06;100753.06;5031667;28;20244;-76
2022/05/26 02:37:07;;;;;;;0.80;0.80;;;;;;;16.13;86.37;100761.03;5023919;28;21004;-77
2022/05/26 02:39:33;;;;;;;0.60;0.50;;;;;;;16.08;86.57;100751.59;5027359;28;20198;-76
2022/05/26 02:41:59;;;;;;;1.40;0.80;;;;;;;16.03;86.76;100750.88;5026905;28;20194;-76
2022/05/26 02:44:27;;;;;;;0.67;0.60;;;;;;;15.98;87.02;100758.78;5026763;28;20188;-77
2022/05/26 02:47:05;;;;;;;1.00;0.80;;;;;;;15.95;87.02;100753.66;5023585;28;20200;-75
2022/05/26 02:49:45;;;;;;;0.60;0.50;;;;;;;15.90;87.57;100763.34;5028658;28;20286;-76
2022/05/26 02:52:11;;;;;;;0.60;0.60;;;;;;;15.83;87.62;100770.44;5045559;28;20827;-75
2022/05/26 02:54:45;;;;;;;1.17;0.70;;;;;;;15.78;87.68;100767.94;5025246;28;20275;-76
2022/05/26 02:57:35;;;;;;;1.47;0.70;;;;;;;15.73;87.55;100761.94;5015827;28;20239;-75
2022/05/26 03:00:00;;;;;;;1.10;0.60;;;;;;;15.69;87.65;100760.28;5024628;28;20210;-75
2022/05/26 03:02:35;;;;;;;0.90;0.73;;;;;;;15.65;87.64;100769.09;5026067;28;20182;-76
2022/05/26 03:05:23;;;;;;;1.17;0.70;;;;;;;15.59;87.65;100767.47;5017633;28;20276;-77
2022/05/26 03:07:53;;;;;;;0.90;0.60;;;;;;;15.52;87.89;100771.97;5023933;28;20209;-77
2022/05/26 03:10:24;;;;;;;1.10;0.60;;;;;;;15.46;88.10;100769.50;5025259;28;20560;-76
2022/05/26 03:12:50;;;;;;;1.27;0.70;;;;;;;15.39;88.21;100767.91;5026576;28;20325;-75
2022/05/26 03:15:15;;;;;;;0.93;0.73;;;;;;;15.34;88.52;100777.59;5021422;28;20270;-76
2022/05/26 03:17:41;;;;;;;1.07;0.60;;;;;;;15.26;88.51;100771.66;5026886;28;20229;-76
2022/05/26 03:20:07;;;;;;;1.20;0.60;;;;;;;15.19;89.06;100777.03;5027875;28;20250;-75
2022/05/26 03:22:35;;;;;;;0.70;0.70;;;;;;;15.14;89.23;100780.59;5025822;28;20210;-76
2022/05/26 03:25:00;;;;;;;1.33;0.70;;;;;;;15.10;89.42;100782.41;5027807;28;20199;-76
2022/05/26 03:27:25;;;;;;;1.13;0.70;;;;;;;15.07;89.59;100778.13;5022975;28;20230;-74
2022/05/26 03:29:51;;;;;;;0.60;0.60;;;;;;;15.07;89.67;100774.63;5026021;28;20187;-75
2022/05/26 03:32:16;;;;;;;0.90;0.60;;;;;;;15.06;89.65;100776.41;5021398;28;20208;-75
2022/05/26 03:42:54;;;;;;;2.10;1.00;;;;;;;15.11;90.38;100783.28;5026458;28;20198;-75
2022/05/26 03:45:23;;;;;;;1.70;0.80;;;;;;;15.12;91.08;100785.84;5023770;28;20189;-76
2022/05/26 03:47:49;;;;;;;1.10;0.70;;;;;;;15.15;91.37;100787.50;5027040;28;20213;-76
2022/05/26 03:50:15;;;;;;;1.87;1.07;;;;;;;15.20;91.70;100791.75;5027200;28;20175;-76
2022/05/26 03:52:40;;;;;;;1.00;0.83;;;;;;;15.26;91.65;100789.91;5028499;28;20563;-76
2022/05/26 03:55:06;;;;;;;1.63;0.90;;;;;;;15.30;91.67;100787.19;5028367;28;20553;-76
2022/05/26 03:57:31;;;;;;;1.33;1.00;;;;;;;15.35;91.56;100800.19;5027249;28;20215;-76
2022/05/26 03:59:58;;;;;;;1.20;1.10;;;;;;;15.39;91.49;100800.06;5027459;28;20214;-75
2022/05/26 04:02:24;;;;;;;2.43;0.97;;;;;;;15.43;91.45;100805.22;5020301;28;20236;-76
2022/05/26 04:04:50;;;;;;;0.83;0.80;;;;;;;15.44;91.59;100805.19;5028181;28;20188;-75
2022/05/26 04:07:15;;;;;;;1.17;0.90;;;;;;;15.46;91.67;100802.53;5026085;28;20649;-76
2022/05/26 04:09:41;;;;;;;0.97;0.77;;;;;;;15.52;91.50;100802.41;5028857;28;20994;-76
2022/05/26 04:12:09;;;;;;;1.93;0.80;;;;;;;15.58;91.79;100811.84;5020995;28;20197;-75
2022/05/26 04:14:35;;;;;;;1.53;0.70;;;;;;;15.64;91.59;100806.53;5025643;28;20198;-76
2022/05/26 04:17:00;;;;;;;1.20;0.97;;;;;;;15.66;91.71;100802.09;5027582;28;20187;-76
2022/05/26 04:19:26;;;;;;;1.13;1.00;;;;;;;15.68;91.42;100798.59;5023460;28;20210;-75
2022/05/26 04:24:58;;;;;;;1.10;1.00;;;;;;;15.73;91.38;100808.06;5042328;28;20191;-76
2022/05/26 04:27:26;;;;;;;1.43;0.80;;;;;;;15.73;91.64;100808.06;5024110;28;20307;-76
2022/05/26 04:29:52;;;;;;;0.80;0.80;;;;;;;15.75;91.73;100812.34;5024487;28;20664;-76
2022/05/26 04:32:18;;;;;;;0.80;0.70;;;;;;;15.80;91.62;100818.34;5024106;28;20204;-76
2022/05/26 04:34:48;;;;;;;1.33;0.90;;;;;;;15.83;91.47;100817.41;5025203;28;20722;-75
2022/05/26 04:37:13;;;;;;;1.50;0.90;;;;;;;15.88;91.63;100817.31;5021938;28;20196;-76
2022/05/26 04:39:39;;;;;;;1.33;0.60;;;;;;;15.90;91.24;100819.00;5018173;28;20210;-77
2022/05/26 04:42:05;;;;;;;1.80;1.00;;;;;;;15.94;91.59;100825.03;5019157;28;20199;-77
2022/05/26 04:44:33;;;;;;;1.77;1.00;;;;;;;15.97;90.98;100827.53;5025450;28;20179;-75
2022/05/26 04:47:00;;;;;;;1.77;0.90;;;;;;;16.02;91.11;100820.47;5024871;28;20206;-76
2022/05/26 04:49:25;;;;;;;2.40;1.00;;;;;;;16.09;90.22;100821.19;5025608;28;20871;-76
2022/05/26 04:51:51;;;;;;;1.87;1.00;;;;;;;16.19;89.79;100824.44;5023403;28;20192;-76
2022/05/26 04:54:16;;;;;;;1.00;0.80;;;;;;;16.28;89.20;100825.09;5016998;28;20195;-76
2022/05/26 04:56:42;;;;;;;4.17;1.10;;;;;;;16.38;88.97;100824.84;5042113;28;20188;-76
2022/05/26 04:59:08;;;;;;;1.50;0.87;;;;;;;16.51;88.45;100828.03;5038972;28;20756;-75
2022/05/26 05:01:33;;;;;;;1.23;0.70;;;;;;;16.61;87.85;100829.50;5027908;28;20298;-77
2022/05/26 05:04:00;;;;;;;1.77;0.80;;;;;;;16.70;87.71;100834.53;5029533;28;20249;-75
2022/05/26 05:06:25;;;;;;;1.50;0.87;;;;;;;16.82;87.52;100830.72;5026919;28;20186;-75
2022/05/26 05:08:51;;;;;;;0.70;0.70;;;;;;;17.04;87.78;100838.03;5022823;28;20212;-77
2022/05/26 05:11:16;;;;;;;1.83;1.00;;;;;;;17.28;86.71;100840.84;5030707;28;20183;-77
2022/05/26 05:13:42;;;;;;;2.17;0.60;;;;;;;17.47;86.15;100838.59;5027931;28;20192;-75
2022/05/26 05:16:27;;;;;;;1.57;0.87;;;;;;;17.67;85.40;100841.44;5029146;28;20187;-76
2022/05/26 05:18:53;;;;;;;1.37;0.83;;;;;;;17.87;85.01;100841.75;5025190;28;20219;-76
2022/05/26 05:21:28;;;;;;;1.73;0.80;;;;;;;18.10;84.38;100847.19;5022932;28;20588;-75
2022/05/26 05:23:58;;;;;;;1.30;1.00;;;;;;;18.34;83.19;100847.28;5029464;28;20209;-77
2022/05/26 05:26:27;;;;;;;0.87;0.80;;;;;;;18.55;82.45;100857.97;5015756;28;20672;-75
2022/05/26 05:29:00;;;;;;;1.23;0.80;;;;;;;18.71;80.55;100848.69;5021633;28;20213;-76
2022/05/26 05:31:33;;;;;;;1.17;0.80;;;;;;;18.71;80.74;100848.69;5029190;28;20268;-77
2022/05/26 05:34:04;;;;;;;1.27;1.00;;;;;;;18.64;81.12;100857.66;5026420;28;20190;-75
2022/05/26 05:36:33;;;;;;;3.07;0.90;;;;;;;18.54;80.15;100864.13;5027598;28;20619;-76
2022/05/26 05:38:59;;;;;;;2.50;1.10;;;;;;;18.40;80.28;100875.94;5026140;28;20214;-76
2022/05/26 05:41:27;;;;;;;1.10;1.00;;;;;;;18.27;80.60;100869.38;5024521;28;20553;-77
2022/05/26 05:43:54;;;;;;;1.30;0.90;;;;;;;18.21;81.17;100875.66;5022069;28;20220;-76
2022/05/26 05:46:20;;;;;;;0.80;0.80;;;;;;;18.21;81.20;100875.66;5025741;28;20193;-77
2022/05/26 05:48:46;;;;;;;1.27;0.97;;;;;;;18.24;81.33;100875.53;5029420;28;20223;-77
2022/05/26 05:51:13;;;;;;;1.17;0.90;;;;;;;18.29;80.50;100878.03;5029085;28;20234;-76
2022/05/26 05:53:38;;;;;;;1.27;1.00;;;;;;;18.71;80.12;100881.91;5022272;28;20182;-77
2022/05/26 05:56:04;;;;;;;1.43;0.90;;;;;;;20.31;76.97;100877.00;5025220;28;20187;-76
2022/05/26 05:58:30;;;;;;;2.40;1.10;;;;;;;22.03;71.90;100884.50;5030742;28;20212;-77
2022/05/26 06:00:55;;;;;;;1.87;1.00;;;;;;;22.56;70.45;100885.50;5027295;28;20306;-77
2022/05/26 06:03:22;;;;;;;1.43;0.90;;;;;;;22.80;69.93;100888.69;5025852;28;20194;-77
2022/05/26 06:05:47;;;;;;;1.07;0.90;;;;;;;23.64;67.68;100873.78;5033651;28;20680;-75
2022/05/26 06:08:12;;;;;;;0.97;0.83;;;;;;;24.95;65.32;100885.84;5028580;28;20219;-75
2022/05/26 06:10:38;;;;;;;1.43;0.97;;;;;;;25.87;63.19;100881.06;5027422;28;20184;-75
2022/05/26 06:13:03;;;;;;;0.93;0.90;;;;;;;25.78;62.89;100881.66;5026168;28;20241;-76
2022/05/26 06:15:29;;;;;;;1.40;0.90;;;;;;;25.59;63.28;100884.63;5034526;28;20189;-76
2022/05/26 06:17:56;;;;;;;1.97;1.00;;;;;;;25.36;63.04;100879.78;5023376;28;20682;-76
2022/05/26 06:20:22;;;;;;;0.90;0.90;;;;;;;24.97;63.38;100889.22;5022334;28;20220;-75
2022/05/26 06:22:48;;;;;;;1.43;0.90;;;;;;;24.56;64.72;100881.91;5029879;28;20198;-77
2022/05/26 06:25:16;;;;;;;1.47;0.80;;;;;;;24.03;65.97;100891.03;5029068;28;20963;-76
2022/05/26 06:30:30;;;;;;;1.33;1.17;;;;;;;22.97;67.32;100901.03;5029431;28;20280;-75
2022/05/26 06:38:36;;;;;;;1.47;0.80;;;;;;;21.49;71.42;100906.28;5016780;28;20221;-77
2022/05/26 06:43:46;;;;;;;1.83;0.80;;;;;;;20.74;73.37;100920.88;5021357;28;20195;-76
2022/05/26 06:46:11;;;;;;;0.83;0.80;;;;;;;20.43;74.23;100925.59;5030131;28;20184;-75
2022/05/26 06:48:36;;;;;;;1.20;0.80;;;;;;;20.18;74.87;100925.72;5029613;28;20207;-77
2022/05/26 06:51:05;;;;;;;0.80;0.80;;;;;;;20.01;75.98;100931.63;5029223;28;20653;-76
2022/05/26 06:53:30;;;;;;;0.90;0.80;;;;;;;20.04;76.43;100931.50;5030678;28;20598;-75
2022/05/26 06:55:56;;;;;;;3.80;1.20;;;;;;;20.12;76.55;100941.72;5028957;28;20251;-76
2022/05/26 06:58:21;;;;;;;1.33;0.80;;;;;;;20.11;76.46;100935.63;5019996;28;20234;-75
2022/05/26 07:00:46;;;;;;;2.17;0.90;;;;;;;20.17;76.99;100939.78;5021664;28;20589;-77
2022/05/26 07:03:14;;;;;;;1.10;0.90;;;;;;;20.18;76.79;100939.72;5022948;28;20188;-76
2022/05/26 07:05:39;;;;;;;3.53;1.20;;;;;;;20.11;76.99;100946.13;5024592;28;20188;-77
2022/05/26 07:08:05;;;;;;;1.73;1.00;;;;;;;20.07;77.44;100940.13;5022072;28;20626;-76
2022/05/26 07:10:33;;;;;;;1.07;0.90;;;;;;;20.01;77.45;100940.38;5026970;28;20188;-76
2022/05/26 07:12:59;;;;;;;2.00;1.00;;;;;;;19.99;77.94;100943.94;5020062;28;20185;-75
2022/05/26 07:15:25;;;;;;;1.00;0.80;;;;;;;19.89;78.21;100946.94;5023437;28;20274;-76
2022/05/26 07:17:50;;;;;;;1.07;0.87;;;;;;;19.83;78.73;100943.66;5028759;28;20569;-76
2022/05/26 07:20:16;;;;;;;2.07;0.97;;;;;;;19.76;78.70;100946.50;5030611;28;20681;-76
2022/05/26 07:22:41;;;;;;;1.53;1.13;;;;;;;19.70;79.33;100953.75;5032337;28;20182;-76
2022/05/26 07:25:08;;;;;;;1.47;0.90;;;;;;;19.70;79.14;100952.00;5030260;28;20202;-77
2022/05/26 07:27:33;;;;;;;2.07;1.00;;;;;;;19.67;79.12;100948.59;5032152;28;20210;-76
2022/05/26 07:30:00;;;;;;;1.37;1.00;;;;;;;19.67;79.44;100952.09;5024882;28;20749;-76
2022/05/26 07:32:25;;;;;;;1.63;1.10;;;;;;;19.75;78.67;100950.03;5023712;28;20245;-76
2022/05/26 07:34:51;;;;;;;1.10;0.90;;;;;;;19.82;78.26;100948.03;5022142;28;20183;-76
2022/05/26 07:42:45;;;;;;;0.97;0.80;;;;;;;20.09;77.76;100951.44;5029074;28;20192;-75
2022/05/26 07:45:10;;;;;;;1.27;0.90;;;;;;;20.18;77.16;100955.47;5025728;28;20190;-77
2022/05/26 07:47:37;;;;;;;1.37;1.10;;;;;;;20.26;77.27;100960.44;5027732;28;20211;-76
2022/05/26 07:50:05;;;;;;;1.03;0.90;;;;;;;20.43;77.30;100959.75;5021403;28;20184;-76
2022/05/26 07:52:30;;;;;;;2.17;1.13;;;;;;;20.63;76.45;100961.63;5017707;28;20233;-76
2022/05/26 07:54:56;;;;;;;2.10;0.97;;;;;;;20.69;76.36;100968.41;5026481;28;20187;-76
2022/05/26 07:57:25;;;;;;;3.60;1.10;;;;;;;20.75;76.24;100975.19;5024396;28;20182;-76
2022/05/26 07:59:51;;;;;;;1.53;0.97;;;;;;;;;;5028941;28;20755;-76
2022/05/26 08:02:18;;;;;;;2.43;1.17;;;;;;;20.85;75.64;100973.91;5034519;28;20212;-75
2022/05/26 08:04:43;;;;;;;0.90;0.70;;;;;;;20.88;75.96;100968.53;5029975;28;20192;-76
2022/05/26 08:07:09;;;;;;;1.00;0.90;;;;;;;20.94;75.96;100970.91;5032439;28;20946;-76
2022/05/26 08:09:37;;;;;;;1.80;0.90;;;;;;;20.99;75.59;100968.94;5026539;28;20182;-74
2022/05/26 08:12:05;;;;;;;1.50;1.17;;;;;;;20.92;75.38;100978.00;5022692;28;20184;-75
2022/05/26 08:14:30;;;;;;;1.60;1.20;;;;;;;20.86;75.44;100973.88;5021159;28;20206;-75
2022/05/26 08:16:55;;;;;;;2.50;0.93;;;;;;;;;;5026557;28;20879;-76
2022/05/26 08:19:21;;;;;;;2.10;0.93;;;;;;;20.62;75.11;100991.47;5026259;28;20238;-75
2022/05/26 08:21:48;;;;;;;2.13;1.20;;;;;;;20.49;75.42;100987.63;5023894;28;20244;-75
2022/05/26 08:24:13;;;;;;;1.33;0.80;;;;;;;20.33;76.31;100980.31;5025075;28;20203;-76
2022/05/26 08:26:40;;;;;;;1.03;0.73;;;;;;;20.35;76.79;100986.34;5021952;28;20204;-75
2022/05/26 08:29:05;;;;;;;0.83;0.80;;;;;;;20.49;76.58;100988.44;5024457;28;20207;-76
2022/05/26 08:31:30;;;;;;;3.97;1.20;;;;;;;20.74;76.58;100984.00;5023516;28;20246;-75
2022/05/26 08:33:56;;;;;;;2.80;1.07;;;;;;;20.96;75.75;100991.88;5027549;28;20560;-75
2022/05/26 08:36:26;;;;;;;2.60;1.20;;;;;;;21.06;75.51;100984.47;5031205;28;20191;-75
2022/05/26 08:38:53;;;;;;;1.50;1.00;;;;;;;21.13;75.61;100993.81;5029371;28;20681;-77
2022/05/26 08:41:24;;;;;;;2.10;1.03;;;;;;;21.30;74.74;100990.47;5026232;28;20624;-77
2022/05/26 08:44:05;;;;;;;2.40;1.07;;;;;;;21.42;73.85;100995.22;5028979;28;20175;-76
2022/05/26 08:47:03;;;;;;;1.90;0.90;;;;;;;21.43;74.27;100996.94;5029668;28;20639;-75
2022/05/26 08:49:40;;;;;;;1.50;1.00;;;;;;;21.44;74.54;101006.53;5026182;28;20218;-76
2022/05/26 08:52:11;;;;;;;2.03;1.00;;;;;;;21.54;74.72;101006.13;5023980;28;20541;-77
2022/05/26 08:54:47;;;;;;;1.23;0.63;;;;;;;21.58;74.75;101007.72;5017994;28;20334;-76
2022/05/26 08:57:17;;;;;;;1.90;0.93;;;;;;;21.61;75.02;101005.81;5028690;28;20228;-76
2022/05/26 08:59:45;;;;;;;1.87;1.00;;;;;;;21.61;74.91;101007.63;5043786;28;20345;-77
2022/05/26 09:02:31;;;;;;;2.57;1.20;;;;;;;21.51;74.72;101015.03;5028255;28;21870;-77
2022/05/26 09:05:01;;;;;;;1.83;1.13;;;;;;;21.37;74.15;101014.75;5029475;28;20215;-76
2022/05/26 09:13:32;;;;;;;4.10;1.00;;;;;;;21.42;75.18;101018.91;5029660;28;20192;-77
2022/05/26 09:15:59;;;;;;;1.03;0.90;;;;;;;21.37;75.31;101017.41;5031961;28;20188;-76
2022/05/26 09:18:25;;;;;;;1.47;0.70;;;;;;;21.33;75.23;101019.28;5029496;28;20217;-77
2022/05/26 09:20:51;;;;;;;1.80;0.73;;;;;;;21.30;75.76;101019.44;5031652;28;20667;-77
2022/05/26 09:23:24;;;;;;;2.03;0.80;;;;;;;21.30;75.97;101016.81;5028200;28;20302;-76
2022/05/26 09:25:49;;;;;;;2.20;0.80;;;;;;;21.36;76.00;101021.78;5028044;28;20183;-77
2022/05/26 09:28:56;;;;;;;1.47;0.70;;;;;;;21.57;75.91;101019.16;5031073;28;20268;-76
2022/05/26 09:31:32;;;;;;;1.70;0.87;;;;;;;21.81;75.48;101022.53;5015559;28;20223;-77
2022/05/26 09:34:09;;;;;;;1.03;0.90;;;;;;;22.03;75.01;101021.56;5030838;28;20262;-77
2022/05/26 09:36:44;;;;;;;1.03;0.80;;;;;;;22.21;73.88;101019.88;5028356;28;20194;-76
2022/05/26 09:39:11;;;;;;;2.27;0.90;;;;;;;22.24;73.74;101019.72;5032324;28;20207;-77
2022/05/26 09:41:47;;;;;;;1.53;1.03;;;;;;;22.12;73.28;101020.28;5028901;28;20207;-76
2022/05/26 09:44:44;;;;;;;1.73;0.90;;;;;;;21.85;73.67;101028.50;5028261;28;20211;-75
2022/05/26 09:47:34;;;;;;;1.80;0.97;;;;;;;21.57;74.43;101027.06;5061765;28;20245;-77
2022/05/26 09:50:06;;;;;;;1.30;0.83;;;;;;;21.36;74.47;101036.75;5029684;28;20293;-76
2022/05/26 09:52:59;;;;;;;2.03;1.00;;;;;;;21.05;75.70;101046.75;5030545;28;20188;-76
2022/05/26 09:55:28;;;;;;;1.90;1.03;;;;;;;20.86;76.42;101046.66;5021528;28;20334;-76
2022/05/26 09:58:04;;;;;;;1.30;0.90;;;;;;;20.74;76.70;101045.31;5029342;28;20238;-76
2022/05/26 10:00:40;;;;;;;3.63;0.80;;;;;;;20.74;76.49;101045.31;5032810;28;20215;-76
2022/05/26 10:03:34;;;;;;;1.40;0.80;;;;;;;20.83;76.86;101046.78;5030895;28;20187;-77
2022/05/26 10:06:11;;;;;;;2.23;0.80;;;;;;;20.90;76.49;101044.75;5028781;28;20179;-76
2022/05/26 10:08:52;;;;;;;1.30;0.70;;;;;;;20.87;76.62;101053.63;5038574;28;20217;-77
2022/05/26 10:11:30;;;;;;;1.23;0.80;;;;;;;;;;5032328;28;20216;-78
2022/05/26 10:14:20;;;;;;;1.23;0.70;;;;;;;20.88;76.83;101060.59;5027941;28;20218;-77
2022/05/26 10:17:13;;;;;;;1.20;0.83;;;;;;;21.04;76.56;101058.19;5030177;28;20210;-77
2022/05/26 10:19:39;;;;;;;1.00;0.80;;;;;;;21.32;76.04;101055.28;5005320;28;20218;-75
2022/05/26 10:22:08;;;;;;;0.80;0.70;;;;;;;21.59;75.65;101062.09;5025618;28;20736;-76
2022/05/26 10:24:36;;;;;;;1.07;0.70;;;;;;;21.84;75.29;101063.69;5025203;28;20190;-76
2022/05/26 10:27:01;;;;;;;0.80;0.63;;;;;;;22.09;75.04;101055.56;5028925;28;20570;-75
2022/05/26 10:29:48;;;;;;;1.73;0.80;;;;;;;22.48;74.29;101057.31;5022928;28;20215;-76
2022/05/26 10:32:46;;;;;;;0.70;0.70;;;;;;;22.84;73.60;101061.78;5035207;28;20714;-77
2022/05/26 10:35:33;;;;;;;2.17;0.97;;;;;;;22.98;72.61;101052.31;5030146;28;20322;-77
2022/05/26 10:38:31;;;;;;;1.33;0.83;;;;;;;23.03;72.85;101057.38;5022350;28;20227;-77
2022/05/26 10:41:15;;;;;;;0.70;0.70;;;;;;;23.01;72.66;101057.47;4996619;28;20236;-76
2022/05/26 10:43:48;;;;;;;1.33;0.80;;;;;;;23.06;72.34;101059.88;5027396;28;20198;-77
2022/05/26 10:46:17;;;;;;;1.67;0.87;;;;;;;23.14;72.35;101066.47;5026302;28;20206;-75
2022/05/26 10:48:45;;;;;;;1.40;0.80;;;;;;;23.25;72.03;101060.69;5025601;28;20222;-77
2022/05/26 10:51:46;;;;;;;1.20;0.73;;;;;;;23.28;72.05;101057.91;5016040;28;20181;-78
2022/05/26 10:54:16;;;;;;;1.63;1.10;;;;;;;23.36;72.12;101059.28;5021518;28;20196;-76
2022/05/26 10:57:10;;;;;;;1.43;0.90;;;;;;;23.42;72.19;101051.06;5030135;28;20669;-75
2022/05/26 10:59:59;;;;;;;1.63;0.87;;;;;;;23.53;72.03;101061.94;5037519;28;20204;-76
2022/05/26 11:02:30;;;;;;;2.23;0.80;;;;;;;23.78;72.25;101058.00;5027201;28;20681;-79
2022/05/26 11:05:11;;;;;;;2.00;0.90;;;;;;;24.09;71.24;101055.59;5029572;28;20187;-76
2022/05/26 11:07:53;;;;;;;1.50;0.90;;;;;;;24.38;70.72;101053.13;5027758;28;20234;-76
2022/05/26 11:10:44;;;;;;;1.30;0.90;;;;;;;24.68;70.15;101053.22;5019817;28;20651;-76
2022/05/26 11:13:37;;;;;;;1.47;1.00;;;;;;;24.98;69.61;101041.00;5027722;28;20651;-76
2022/05/26 11:19:08;;;;;;;1.33;0.90;;;;;;;25.31;68.27;101042.63;5023385;28;20210;-75
2022/05/26 11:21:34;;;;;;;1.73;1.10;;;;;;;25.33;68.10;101043.38;5028150;28;20761;-76
2022/05/26 11:23:59;;;;;;;1.63;1.00;;;;;;;25.32;68.41;101037.22;5024880;28;20278;-76
2022/05/26 11:26:47;;;;;;;1.53;0.80;;;;;;;25.38;68.17;101041.31;5028497;28;20199;-76
2022/05/26 11:29:25;;;;;;;1.07;0.87;;;;;;;25.53;67.78;101039.56;5014370;28;20215;-76
2022/05/26 11:37:40;;;;;;;1.13;0.90;;;;;;;25.45;67.74;101039.16;5023380;28;20432;-75
2022/05/26 11:40:10;;;;;;;1.47;0.93;;;;;;;25.58;67.55;101034.00;5023856;28;20631;-75
2022/05/26 11:42:49;;;;;;;0.83;0.70;;;;;;;25.75;67.23;101031.16;5025862;28;20191;-76
2022/05/26 11:45:19;;;;;;;1.63;1.10;;;;;;;26.02;66.93;101033.06;5030466;28;20278;-75
2022/05/26 11:48:00;;;;;;;0.90;0.80;;;;;;;26.19;66.58;101029.34;5023301;28;20215;-75
2022/05/26 11:50:44;;;;;;;1.03;0.77;;;;;;;26.36;65.66;101023.00;5013377;28;20211;-76
2022/05/26 11:53:30;;;;;;;1.53;1.10;;;;;;;26.35;65.63;101021.28;5017756;28;20206;-76
2022/05/26 11:56:04;;;;;;;1.13;0.80;;;;;;;26.22;65.37;101018.56;5026163;28;20179;-76
2022/05/26 11:58:44;;;;;;;1.23;0.80;;;;;;;26.08;64.83;101022.06;5020764;28;20206;-77
2022/05/26 12:01:25;;;;;;;1.10;0.90;;;;;;;25.74;65.61;101020.63;5021804;28;20218;-76
2022/05/26 12:03:53;;;;;;;0.80;0.67;;;;;;;25.36;65.87;101014.91;5024054;28;20187;-77
2022/05/26 12:06:37;;;;;;;0.70;0.70;;;;;;;25.19;66.56;101013.25;5025269;28;20284;-76
2022/05/26 12:09:19;;;;;;;0.87;0.60;;;;;;;25.30;66.64;101022.38;5034681;28;20222;-76
2022/05/26 12:11:56;;;;;;;1.43;0.80;;;;;;;25.48;66.47;101012.50;5016806;28;20279;-76
2022/05/26 12:14:54;;;;;;;2.10;0.80;;;;;;;25.69;65.45;101015.63;5018734;28;20210;-76
2022/05/26 12:17:41;;;;;;;1.63;1.00;;;;;;;25.61;65.50;101016.09;5025099;28;20195;-76
2022/05/26 12:20:10;;;;;;;1.57;1.20;;;;;;;25.33;66.33;101014.25;5025822;28;20732;-75
2022/05/26 12:22:38;;;;;;;2.80;1.40;;;;;;;24.96;66.83;101020.75;5022557;28;20223;-76
2022/05/26 12:25:23;;;;;;;1.23;1.13;;;;;;;24.61;67.71;101015.66;5024277;28;20268;-76
2022/05/26 12:27:48;;;;;;;1.77;1.60;;;;;;;24.57;67.89;101015.91;5017332;28;20222;-75
2022/05/26 12:30:36;;;;;;;1.77;1.43;;;;;;;24.70;67.68;101016.97;5024416;28;20194;-77
2022/05/26 12:33:09;;;;;;;3.17;1.90;;;;;;;24.76;67.33;101015.75;5020711;28;20692;-75
2022/05/26 12:35:46;;;;;;;3.67;1.60;;;;;;;24.71;67.08;101013.38;5024224;28;20238;-76